createdAt,value
2022-10-24T00:01:17.797Z,8.50
2022-10-24T00:03:45.457Z,8.67
2022-10-24T00:06:13.529Z,8.70
2022-10-24T00:08:42.159Z,8.60
2022-10-24T00:11:10.457Z,8.27
2022-10-24T00:13:39.917Z,8.90
2022-10-24T00:16:08.152Z,8.73
2022-10-24T00:18:36.793Z,8.67
2022-10-24T00:21:04.397Z,8.77
2022-10-24T00:23:31.996Z,9.23
2022-10-24T00:26:01.526Z,7.90
2022-10-24T00:28:29.625Z,8.17
2022-10-24T00:30:57.775Z,8.40
2022-10-24T00:33:25.538Z,8.47
2022-10-24T00:35:54.446Z,8.30
2022-10-24T00:38:21.810Z,8.70
2022-10-24T00:40:49.428Z,8.70
2022-10-24T00:43:18.437Z,8.90
2022-10-24T00:45:48.565Z,8.90
2022-10-24T00:48:20.453Z,8.87
2022-10-24T00:50:48.953Z,8.57
2022-10-24T00:53:18.376Z,9.30
2022-10-24T00:55:47.861Z,8.87
2022-10-24T00:58:16.182Z,9.37
2022-10-24T01:00:43.614Z,8.83
2022-10-24T01:03:11.645Z,9.67
2022-10-24T01:05:50.005Z,9.00
2022-10-24T01:08:27.076Z,9.50
2022-10-24T01:10:58.717Z,8.70
2022-10-24T01:13:33.862Z,9.40
2022-10-24T01:16:06.889Z,9.33
2022-10-24T01:18:38.745Z,9.73
2022-10-24T01:21:26.905Z,9.87
2022-10-24T01:24:18.857Z,9.20
2022-10-24T01:27:00.283Z,9.47
2022-10-24T01:29:41.789Z,9.53
2022-10-24T01:32:12.770Z,9.80
2022-10-24T01:34:44.613Z,9.53
2022-10-24T01:37:15.394Z,10.03
2022-10-24T01:39:47.480Z,9.77
2022-10-24T01:42:17.593Z,9.80
2022-10-24T01:44:49.764Z,10.10
2022-10-24T01:47:20.649Z,10.77
2022-10-24T01:49:50.969Z,10.27
2022-10-24T01:52:19.552Z,10.43
2022-10-24T01:54:47.985Z,10.07
2022-10-24T01:57:15.843Z,11.10
2022-10-24T01:59:46.808Z,10.33
2022-10-24T02:02:17.656Z,10.53
2022-10-24T02:04:50.629Z,11.43
2022-10-24T02:07:19.043Z,11.40
2022-10-24T02:09:47.806Z,11.63
2022-10-24T02:12:18.069Z,11.40
2022-10-24T02:14:49.950Z,11.43
2022-10-24T02:17:18.147Z,11.10
2022-10-24T02:19:45.912Z,11.23
2022-10-24T02:22:23.549Z,11.30
2022-10-24T02:24:54.035Z,12.00
2022-10-24T02:27:24.300Z,11.60
2022-10-24T02:29:56.976Z,11.87
2022-10-24T02:32:28.341Z,11.80
2022-10-24T02:34:56.421Z,12.10
2022-10-24T02:37:25.462Z,12.27
2022-10-24T02:39:53.160Z,12.83
2022-10-24T02:42:21.002Z,12.70
2022-10-24T02:44:48.923Z,13.33
2022-10-24T02:47:19.160Z,13.47
2022-10-24T02:49:46.577Z,13.67
2022-10-24T02:52:14.396Z,14.13
2022-10-24T02:54:41.741Z,13.67
2022-10-24T02:57:09.073Z,13.90
2022-10-24T02:59:36.420Z,13.37
2022-10-24T03:02:03.845Z,13.60
2022-10-24T03:04:32.546Z,13.10
2022-10-24T03:06:59.997Z,13.70
2022-10-24T03:09:27.375Z,13.27
2022-10-24T03:11:54.731Z,13.50
2022-10-24T03:14:22.084Z,13.20
2022-10-24T03:16:49.452Z,13.30
2022-10-24T03:19:16.881Z,13.00
2022-10-24T03:21:45.541Z,13.20
2022-10-24T03:24:12.903Z,12.90
2022-10-24T03:26:40.259Z,13.20
2022-10-24T03:29:07.586Z,12.40
2022-10-24T03:31:35.045Z,12.27
2022-10-24T03:34:02.429Z,11.87
2022-10-24T03:36:29.768Z,11.73
2022-10-24T03:38:58.409Z,12.00
2022-10-24T03:41:25.753Z,11.73
2022-10-24T03:43:53.106Z,11.73
2022-10-24T03:46:20.424Z,12.00
2022-10-24T03:48:47.758Z,11.27
2022-10-24T03:51:15.426Z,11.53
2022-10-24T03:53:42.773Z,11.70
2022-10-24T03:56:11.945Z,11.30
2022-10-24T03:58:39.262Z,11.40
2022-10-24T04:01:06.791Z,12.10
2022-10-24T04:03:34.168Z,12.20
2022-10-24T04:06:01.492Z,11.93
2022-10-24T04:08:28.825Z,11.97
2022-10-24T04:10:56.161Z,12.23
2022-10-24T04:13:24.797Z,13.30
2022-10-24T04:15:52.148Z,12.07
2022-10-24T04:18:19.644Z,12.70
2022-10-24T04:20:47.029Z,12.93
2022-10-24T04:23:14.444Z,13.30
2022-10-24T04:25:41.814Z,13.60
2022-10-24T04:28:09.180Z,13.50
2022-10-24T04:30:38.212Z,13.40
2022-10-24T04:33:05.721Z,13.50
2022-10-24T04:35:33.063Z,13.10
2022-10-24T04:38:00.412Z,14.20
2022-10-24T04:40:27.901Z,12.83
2022-10-24T04:42:55.228Z,13.90
2022-10-24T04:45:22.592Z,13.70
2022-10-24T04:47:51.287Z,13.20
2022-10-24T04:50:18.621Z,13.10
2022-10-24T04:52:46.029Z,13.07
2022-10-24T04:55:13.596Z,13.47
2022-10-24T04:57:40.966Z,13.50
2022-10-24T05:00:09.394Z,13.17
2022-10-24T05:02:36.800Z,13.03
2022-10-24T05:05:06.445Z,13.27
2022-10-24T05:07:33.856Z,12.70
2022-10-24T05:10:01.204Z,13.00
2022-10-24T05:12:28.633Z,13.00
2022-10-24T05:14:55.951Z,12.93
2022-10-24T05:17:23.596Z,12.80
2022-10-24T05:19:50.974Z,13.13
2022-10-24T05:22:19.725Z,13.27
2022-10-24T05:24:47.131Z,13.60
2022-10-24T05:27:14.638Z,13.40
2022-10-24T05:29:41.942Z,12.80
2022-10-24T05:32:09.270Z,13.10
2022-10-24T05:34:36.609Z,13.10
2022-10-24T05:37:03.952Z,13.23
2022-10-24T05:39:32.657Z,14.07
2022-10-24T05:42:00.053Z,14.43
2022-10-24T05:44:27.381Z,13.40
2022-10-24T05:46:54.755Z,13.47
2022-10-24T05:49:22.372Z,14.10
2022-10-24T05:51:49.965Z,13.83
2022-10-24T05:54:17.320Z,13.30
2022-10-24T05:56:46.008Z,13.50
2022-10-24T05:59:13.457Z,13.30
2022-10-24T06:01:41.144Z,13.77
2022-10-24T06:04:11.355Z,14.00
2022-10-24T06:06:41.369Z,13.33
2022-10-24T06:09:08.792Z,14.47
2022-10-24T06:11:36.230Z,13.73
2022-10-24T06:14:05.990Z,13.63
2022-10-24T06:16:34.099Z,13.67
2022-10-24T06:19:01.558Z,14.10
2022-10-24T06:21:28.926Z,14.20
2022-10-24T06:23:56.281Z,14.13
2022-10-24T06:26:24.247Z,14.20
2022-10-24T06:28:51.713Z,14.30
2022-10-24T06:31:20.714Z,14.23
2022-10-24T06:33:48.326Z,14.17
2022-10-24T06:36:15.749Z,13.93
2022-10-24T06:38:43.065Z,14.53
2022-10-24T06:41:12.429Z,14.83
2022-10-24T06:43:41.923Z,14.67
2022-10-24T06:46:10.324Z,14.80
2022-10-24T06:48:39.050Z,14.83
2022-10-24T06:51:06.814Z,14.27
2022-10-24T06:53:34.902Z,14.80
2022-10-24T06:56:02.765Z,15.03
2022-10-24T06:58:32.365Z,14.93
2022-10-24T07:00:59.878Z,15.00
2022-10-24T07:03:27.409Z,15.40
2022-10-24T07:05:56.152Z,15.73
2022-10-24T07:08:23.546Z,15.53
2022-10-24T07:10:50.920Z,15.17
2022-10-24T07:13:18.231Z,15.23
2022-10-24T07:15:45.533Z,15.63
2022-10-24T07:18:15.734Z,15.60
2022-10-24T07:20:43.206Z,15.40
2022-10-24T07:23:11.861Z,15.50
2022-10-24T07:25:39.192Z,15.80
2022-10-24T07:28:07.038Z,15.80
2022-10-24T07:30:34.753Z,16.27
2022-10-24T07:33:02.082Z,16.17
2022-10-24T07:35:29.428Z,16.30
2022-10-24T07:37:56.813Z,16.17
2022-10-24T07:40:25.505Z,16.57
2022-10-24T07:42:52.900Z,15.93
2022-10-24T07:45:20.445Z,16.30
2022-10-24T07:47:48.372Z,16.63
2022-10-24T07:50:17.119Z,16.33
2022-10-24T07:52:44.465Z,16.27
2022-10-24T07:55:11.937Z,16.60
2022-10-24T07:57:40.608Z,16.40
2022-10-24T08:00:09.323Z,16.30
2022-10-24T08:02:42.718Z,16.67
2022-10-24T08:05:11.410Z,16.80
2022-10-24T08:07:39.106Z,16.63
2022-10-24T08:10:09.126Z,16.53
2022-10-24T08:12:36.647Z,16.33
2022-10-24T08:15:06.087Z,16.77
2022-10-24T08:17:33.446Z,16.53
2022-10-24T08:20:00.842Z,16.70
2022-10-24T08:22:28.242Z,16.70
2022-10-24T08:24:55.557Z,16.80
2022-10-24T08:27:23.102Z,16.10
2022-10-24T08:29:53.232Z,16.80
2022-10-24T08:32:22.128Z,16.77
2022-10-24T08:34:49.505Z,17.10
2022-10-24T08:37:16.836Z,16.87
2022-10-24T08:39:44.189Z,16.33
2022-10-24T08:42:14.284Z,16.67
2022-10-24T08:44:43.187Z,16.77
2022-10-24T08:47:20.659Z,17.10
2022-10-24T08:49:51.263Z,17.33
2022-10-24T08:52:25.427Z,17.33
2022-10-24T08:54:53.445Z,17.50
2022-10-24T08:57:23.646Z,17.90
2022-10-24T08:59:51.440Z,17.80
2022-10-24T09:02:21.496Z,17.50
2022-10-24T09:04:56.069Z,17.23
2022-10-24T09:09:53.654Z,17.60
2022-10-24T09:12:21.794Z,17.47
2022-10-24T09:14:54.217Z,17.77
2022-10-24T09:17:23.673Z,17.50
2022-10-24T09:19:55.831Z,18.60
2022-10-24T09:22:24.893Z,17.47
2022-10-24T09:24:55.382Z,17.77
2022-10-24T09:27:25.168Z,17.20
2022-10-24T09:29:53.194Z,17.60
2022-10-24T09:32:23.065Z,17.57
2022-10-24T09:34:51.801Z,17.17
2022-10-24T09:37:39.150Z,17.57
2022-10-24T09:40:21.554Z,17.90
2022-10-24T09:42:52.452Z,17.70
2022-10-24T09:45:30.413Z,17.43
2022-10-24T09:47:58.886Z,17.43
2022-10-24T09:50:28.401Z,17.23
2022-10-24T09:52:59.041Z,17.60
2022-10-24T09:55:28.606Z,16.73
2022-10-24T09:57:58.039Z,16.83
2022-10-24T10:00:28.392Z,17.70
2022-10-24T10:03:03.925Z,17.83
2022-10-24T10:05:43.978Z,17.60
2022-10-24T10:08:13.245Z,17.27
2022-10-24T10:10:41.410Z,17.47
2022-10-24T10:13:23.378Z,16.93
2022-10-24T10:15:53.641Z,17.17
2022-10-24T10:18:27.621Z,17.10
2022-10-24T10:21:02.863Z,17.43
2022-10-24T10:23:32.585Z,17.00
2022-10-24T10:26:06.503Z,17.27
2022-10-24T10:28:36.151Z,17.20
2022-10-24T10:31:03.997Z,17.50
2022-10-24T10:33:39.350Z,17.37
2022-10-24T10:36:11.338Z,17.20
2022-10-24T10:38:45.530Z,17.70
2022-10-24T10:41:19.691Z,17.67
2022-10-24T10:43:51.387Z,17.53
2022-10-24T10:46:24.062Z,17.50
2022-10-24T10:49:01.169Z,17.33
2022-10-24T10:51:37.898Z,18.17
2022-10-24T10:54:13.920Z,18.50
2022-10-24T10:56:46.677Z,18.40
2022-10-24T10:59:24.698Z,18.23
2022-10-24T11:01:59.060Z,18.30
2022-10-24T11:04:33.651Z,17.77
2022-10-24T11:07:06.762Z,17.03
2022-10-24T11:09:37.933Z,16.63
2022-10-24T11:12:10.995Z,17.17
2022-10-24T11:14:40.422Z,17.03
2022-10-24T11:17:12.949Z,17.50
2022-10-24T11:19:45.689Z,17.30
2022-10-24T11:22:18.035Z,17.30
2022-10-24T11:24:48.430Z,17.43
2022-10-24T11:27:21.543Z,17.10
2022-10-24T11:29:54.111Z,16.80
2022-10-24T11:32:26.518Z,17.33
2022-10-24T11:34:57.058Z,17.20
2022-10-24T11:37:28.747Z,16.43
2022-10-24T11:39:58.316Z,17.30
2022-10-24T11:42:28.501Z,17.10
2022-10-24T11:45:00.777Z,16.20
2022-10-24T11:48:04.171Z,16.40
2022-10-24T11:50:35.945Z,16.57
2022-10-24T11:53:14.523Z,16.83
2022-10-24T11:55:47.087Z,16.07
2022-10-24T11:58:16.926Z,16.07
2022-10-24T12:01:01.048Z,15.80
2022-10-24T12:03:41.709Z,15.37
2022-10-24T12:06:17.846Z,15.10
2022-10-24T12:08:57.756Z,15.57
2022-10-24T12:11:35.343Z,15.20
2022-10-24T12:14:14.537Z,14.60
2022-10-24T12:16:52.224Z,14.30
2022-10-24T12:19:21.088Z,14.87
2022-10-24T12:21:52.613Z,14.00
2022-10-24T12:24:30.056Z,14.20
2022-10-24T12:26:59.847Z,14.40
2022-10-24T12:29:28.181Z,14.10
2022-10-24T12:31:55.694Z,14.00
2022-10-24T12:34:48.889Z,14.00
2022-10-24T12:37:36.753Z,16.20
2022-10-24T12:40:55.688Z,14.47
2022-10-24T12:43:29.981Z,13.87
2022-10-24T12:46:00.029Z,13.37
2022-10-24T12:48:32.503Z,13.60
2022-10-24T12:51:05.627Z,13.27
2022-10-24T12:53:55.750Z,14.40
2022-10-24T12:56:24.425Z,17.63
2022-10-24T12:59:02.760Z,19.73
2022-10-24T13:01:34.363Z,18.90
2022-10-24T13:04:39.487Z,16.70
2022-10-24T13:07:40.341Z,14.80
2022-10-24T13:10:23.150Z,13.80
2022-10-24T13:13:05.972Z,13.90
2022-10-24T13:15:42.439Z,13.00
2022-10-24T13:18:18.462Z,13.37
2022-10-24T13:20:49.553Z,13.37
2022-10-24T13:23:19.445Z,14.10
2022-10-24T13:25:47.510Z,13.40
2022-10-24T13:28:43.304Z,13.17
2022-10-24T13:31:53.314Z,13.20
2022-10-24T13:34:25.981Z,13.10
2022-10-24T13:37:01.226Z,13.23
2022-10-24T13:39:34.297Z,13.00
2022-10-24T13:42:07.832Z,12.90
2022-10-24T13:44:43.985Z,12.90
2022-10-24T13:47:21.119Z,13.07
2022-10-24T13:49:52.898Z,12.70
2022-10-24T13:52:24.172Z,12.60
2022-10-24T13:54:56.656Z,12.23
2022-10-24T13:57:26.667Z,12.10
2022-10-24T14:00:00.410Z,12.50
2022-10-24T14:02:32.324Z,12.70
2022-10-24T14:05:00.643Z,12.67
2022-10-24T14:07:30.502Z,12.70
2022-10-24T14:10:02.721Z,12.10
2022-10-24T14:12:32.579Z,12.30
2022-10-24T14:15:02.581Z,12.50
2022-10-24T14:17:31.355Z,12.33
2022-10-24T14:20:01.163Z,12.03
2022-10-24T14:22:30.473Z,12.10
2022-10-24T14:24:57.861Z,12.00
2022-10-24T14:27:25.683Z,12.10
2022-10-24T14:29:57.260Z,12.27
2022-10-24T14:32:27.222Z,11.90
2022-10-24T14:34:55.320Z,11.77
2022-10-24T14:37:28.999Z,11.67
2022-10-24T14:39:57.043Z,11.90
2022-10-24T14:42:25.078Z,11.00
2022-10-24T14:44:57.476Z,11.33
2022-10-24T14:47:31.915Z,11.60
2022-10-24T14:50:02.287Z,11.57
2022-10-24T14:52:36.466Z,11.33
2022-10-24T14:55:06.342Z,11.63
2022-10-24T14:57:38.172Z,12.00
2022-10-24T15:00:08.271Z,11.80
2022-10-24T15:02:42.157Z,11.63
2022-10-24T15:05:27.684Z,11.50
2022-10-24T15:08:20.558Z,11.67
2022-10-24T15:10:44.822Z,10.90
2022-10-24T15:13:14.621Z,10.93
2022-10-24T15:15:51.218Z,10.97
2022-10-24T15:18:22.453Z,11.30
2022-10-24T15:20:51.830Z,10.47
2022-10-24T15:23:26.409Z,10.83
2022-10-24T15:26:02.597Z,10.37
2022-10-24T15:28:45.987Z,10.77
2022-10-24T15:31:14.561Z,10.70
2022-10-24T15:33:43.404Z,10.33
2022-10-24T15:36:18.393Z,10.70
2022-10-24T15:38:45.899Z,10.37
2022-10-24T15:41:13.301Z,11.00
2022-10-24T15:43:40.784Z,10.13
2022-10-24T15:46:08.212Z,10.10
2022-10-24T15:48:35.595Z,9.80
2022-10-24T15:51:04.862Z,9.93
2022-10-24T15:53:32.495Z,9.70
2022-10-24T15:55:59.886Z,10.20
2022-10-24T15:58:28.649Z,10.40
2022-10-24T16:00:56.101Z,21.60
2022-10-24T16:03:24.364Z,20.37
2022-10-24T16:05:53.800Z,18.30
2022-10-24T16:08:24.003Z,17.90
2022-10-24T16:10:52.742Z,16.70
2022-10-24T16:13:22.122Z,16.40
2022-10-24T16:15:50.355Z,15.87
2022-10-24T16:18:18.026Z,15.63
2022-10-24T16:20:45.434Z,14.10
2022-10-24T16:23:15.320Z,13.60
2022-10-24T16:25:44.399Z,13.30
2022-10-24T16:28:11.878Z,13.60
2022-10-24T16:30:40.805Z,13.10
2022-10-24T16:33:08.335Z,12.37
2022-10-24T16:35:37.838Z,11.33
2022-10-24T16:38:06.446Z,11.30
2022-10-24T16:40:42.040Z,11.10
2022-10-24T16:43:12.972Z,11.60
2022-10-24T16:45:40.819Z,11.47
2022-10-24T16:48:08.194Z,10.67
2022-10-24T16:50:35.846Z,10.80
2022-10-24T16:53:06.715Z,10.50
2022-10-24T16:55:34.434Z,10.33
2022-10-24T16:58:01.784Z,10.50
2022-10-24T17:00:30.601Z,10.50
2022-10-24T17:02:58.798Z,10.07
2022-10-24T17:05:27.773Z,10.47
2022-10-24T17:07:55.395Z,10.13
2022-10-24T17:10:24.771Z,9.80
2022-10-24T17:12:53.089Z,10.03
2022-10-24T17:15:22.395Z,10.60
2022-10-24T17:17:51.483Z,10.23
2022-10-24T17:20:19.077Z,10.37
2022-10-24T17:22:47.305Z,10.97
2022-10-24T17:25:19.489Z,10.40
2022-10-24T17:27:47.418Z,10.03
2022-10-24T17:30:16.461Z,10.03
2022-10-24T17:32:44.288Z,10.17
2022-10-24T17:35:16.541Z,10.27
2022-10-24T17:37:54.729Z,9.97
2022-10-24T17:40:24.219Z,9.97
2022-10-24T17:42:51.972Z,11.33
2022-10-24T17:45:21.805Z,11.20
2022-10-24T17:47:49.616Z,11.67
2022-10-24T17:50:18.925Z,11.67
2022-10-24T17:52:50.688Z,12.17
2022-10-24T17:55:40.911Z,11.60
2022-10-24T17:58:09.132Z,11.40
2022-10-24T18:00:37.060Z,11.90
2022-10-24T18:03:05.152Z,12.07
2022-10-24T18:05:37.370Z,11.10
2022-10-24T18:08:05.165Z,11.20
2022-10-24T18:10:32.717Z,10.67
2022-10-24T18:13:00.228Z,11.13
2022-10-24T18:15:29.013Z,10.80
2022-10-24T18:17:56.451Z,10.60
2022-10-24T18:20:23.798Z,10.67
2022-10-24T18:22:52.564Z,10.10
2022-10-24T18:25:22.872Z,10.63
2022-10-24T18:27:50.941Z,9.77
2022-10-24T18:30:19.328Z,9.70
2022-10-24T18:32:47.452Z,9.40
2022-10-24T18:35:16.125Z,9.70
2022-10-24T18:37:43.514Z,10.10
2022-10-24T18:40:13.777Z,10.20
2022-10-24T18:42:45.136Z,9.83
2022-10-24T18:45:14.909Z,9.60
2022-10-24T18:47:42.711Z,9.87
2022-10-24T18:50:13.913Z,10.00
2022-10-24T18:52:45.081Z,10.60
2022-10-24T18:55:18.723Z,10.10
2022-10-24T18:57:46.596Z,10.40
2022-10-24T19:00:16.502Z,10.27
2022-10-24T19:02:49.679Z,9.97
2022-10-24T19:05:21.198Z,10.77
2022-10-24T19:07:49.959Z,10.57
2022-10-24T19:10:22.298Z,12.10
2022-10-24T19:12:50.065Z,11.60
2022-10-24T19:15:18.240Z,11.23
2022-10-24T19:17:46.413Z,12.00
2022-10-24T19:20:16.149Z,11.20
2022-10-24T19:22:43.982Z,11.33
2022-10-24T19:25:11.497Z,10.80
2022-10-24T19:27:40.715Z,11.00
2022-10-24T19:30:09.365Z,10.53
2022-10-24T19:32:36.708Z,11.17
2022-10-24T19:35:04.678Z,9.97
2022-10-24T19:37:32.111Z,10.40
2022-10-24T19:39:59.457Z,10.33
2022-10-24T19:42:26.808Z,10.53
2022-10-24T19:44:56.438Z,10.40
2022-10-24T19:47:23.805Z,10.27
2022-10-24T19:49:51.169Z,10.83
2022-10-24T19:52:18.841Z,11.27
2022-10-24T19:54:46.176Z,10.70
2022-10-24T19:57:13.565Z,10.33
2022-10-24T19:59:40.870Z,10.77
2022-10-24T20:02:10.964Z,10.67
2022-10-24T20:04:40.214Z,10.47
2022-10-24T20:07:08.543Z,10.80
2022-10-24T20:09:38.201Z,10.23
2022-10-24T20:12:06.421Z,10.60
2022-10-24T20:14:33.825Z,10.57
2022-10-24T20:17:01.187Z,11.00
2022-10-24T20:19:29.892Z,10.47
2022-10-24T20:21:59.025Z,11.10
2022-10-24T20:24:30.433Z,10.80
2022-10-24T20:26:57.850Z,10.70
2022-10-24T20:29:25.248Z,10.80
2022-10-24T20:31:52.560Z,10.67
2022-10-24T20:34:20.560Z,10.70
2022-10-24T20:36:49.227Z,10.57
2022-10-24T20:39:20.648Z,10.77
2022-10-24T20:41:51.735Z,10.93
2022-10-24T20:44:21.433Z,11.10
2022-10-24T20:46:48.808Z,10.53
2022-10-24T20:49:16.160Z,10.37
2022-10-24T20:51:43.700Z,10.13
2022-10-24T20:54:12.367Z,10.47
2022-10-24T20:56:42.480Z,10.17
2022-10-24T20:59:12.881Z,10.27
2022-10-24T21:01:40.394Z,9.60
2022-10-24T21:04:07.937Z,9.70
2022-10-24T21:06:35.540Z,9.97
2022-10-24T21:09:04.687Z,9.90
2022-10-24T21:11:35.230Z,9.97
2022-10-24T21:14:04.338Z,9.50
2022-10-24T21:16:32.045Z,11.40
2022-10-24T21:18:59.710Z,11.47
2022-10-24T21:21:27.654Z,10.83
2022-10-24T21:23:59.646Z,10.47
2022-10-24T21:26:30.052Z,9.47
2022-10-24T21:29:08.657Z,9.50
2022-10-24T21:31:42.210Z,9.77
2022-10-24T21:34:09.561Z,9.67
2022-10-24T21:36:36.990Z,10.20
2022-10-24T21:39:04.725Z,10.00
2022-10-24T21:41:32.050Z,10.43
2022-10-24T21:44:00.721Z,10.13
2022-10-24T21:46:29.071Z,9.87
2022-10-24T21:48:57.244Z,9.60
2022-10-24T21:51:26.373Z,9.50
2022-10-24T21:53:55.408Z,9.17
2022-10-24T21:56:24.686Z,9.27
2022-10-24T21:58:54.298Z,9.10
2022-10-24T22:01:26.202Z,8.97
2022-10-24T22:03:54.115Z,9.20
2022-10-24T22:06:21.762Z,8.70
2022-10-24T22:08:50.073Z,8.67
2022-10-24T22:11:19.157Z,8.13
2022-10-24T22:13:48.092Z,8.80
2022-10-24T22:16:17.503Z,8.60
2022-10-24T22:18:46.422Z,8.53
2022-10-24T22:21:21.416Z,8.40
2022-10-24T22:23:48.731Z,8.60
2022-10-24T22:26:16.085Z,8.67
2022-10-24T22:28:43.424Z,8.80
2022-10-24T22:31:12.039Z,8.60
2022-10-24T22:33:40.514Z,8.60
2022-10-24T22:36:14.409Z,8.03
2022-10-24T22:38:42.355Z,8.43
2022-10-24T22:41:10.897Z,8.07
2022-10-24T22:43:38.857Z,8.90
2022-10-24T22:46:17.101Z,9.17
2022-10-24T22:48:48.120Z,8.80
2022-10-24T22:51:17.940Z,9.10
2022-10-24T22:53:45.890Z,9.33
2022-10-24T22:56:14.934Z,8.90
2022-10-24T22:58:46.512Z,9.20
2022-10-24T23:01:21.798Z,8.57
2022-10-24T23:03:59.646Z,8.70
2022-10-24T23:06:38.233Z,8.73
2022-10-24T23:09:05.582Z,8.70
2022-10-24T23:11:33.354Z,8.97
2022-10-24T23:14:01.196Z,9.50
2022-10-24T23:16:35.050Z,9.73
2022-10-24T23:19:04.934Z,10.00
2022-10-24T23:21:37.548Z,10.03
2022-10-24T23:24:06.632Z,9.70
2022-10-24T23:26:37.787Z,9.87
2022-10-24T23:29:10.122Z,9.57
2022-10-24T23:31:37.885Z,9.50
2022-10-24T23:34:05.734Z,9.70
2022-10-24T23:36:35.060Z,9.87
2022-10-24T23:39:02.991Z,10.20
2022-10-24T23:41:30.946Z,9.40
2022-10-24T23:43:58.732Z,10.10
2022-10-24T23:46:27.624Z,9.10
2022-10-24T23:49:06.823Z,9.30
2022-10-24T23:51:39.302Z,9.70
2022-10-24T23:54:09.630Z,9.53
2022-10-24T23:56:37.602Z,10.10
2022-10-24T23:59:05.411Z,10.03
